Fairview, North Carolina
Current Conditions -  °F | °C
As of 11:54 AM on Tuesday 21 Oct 2014 (Local Time) from KAVL Reporting Station
Clear Clear  
Wind Chill: 62°   Ceiling: Unl
Heat Index: 62°   Visibility: 10mi
Dew Point: 47°   Wind: 8mph
Humidity: 58%   Direction: 360°N
Pressure: 29.99"   Gusts: NA
Location:  35.52°N, 82.4°W
Report Text: KAVL 211554Z 36007KT 10SM CLR 17/08 A2999 RMK AO2 SLP144 T01670083
Loading
Personal Weather Stations






























Interactive Weather Map
Tropical Storm Tracking
New forecast layout! Learn more

10-Day Weather Forecast

Advertisements
Track Severe Weather on mobile